sensor_id;sensor_type;location;lat;lon;timestamp;temperature;humidity
3790;DHT22;1910;49.042;9.028;2023-08-17T00:01:55;19.90;99.90
3790;DHT22;1910;49.042;9.028;2023-08-17T00:04:21;19.90;99.90
3790;DHT22;1910;49.042;9.028;2023-08-17T00:06:47;19.90;99.90
3790;DHT22;1910;49.042;9.028;2023-08-17T00:09:12;19.80;99.90
3790;DHT22;1910;49.042;9.028;2023-08-17T00:11:38;19.80;99.90
3790;DHT22;1910;49.042;9.028;2023-08-17T00:14:04;19.70;99.90
3790;DHT22;1910;49.042;9.028;2023-08-17T00:16:30;19.70;99.90
3790;DHT22;1910;49.042;9.028;2023-08-17T00:18:56;19.70;99.90
3790;DHT22;1910;49.042;9.028;2023-08-17T00:21:22;19.60;99.90
3790;DHT22;1910;49.042;9.028;2023-08-17T00:23:48;19.60;99.90
3790;DHT22;1910;49.042;9.028;2023-08-17T00:26:13;19.60;99.90
3790;DHT22;1910;49.042;9.028;2023-08-17T00:28:39;19.50;99.90
3790;DHT22;1910;49.042;9.028;2023-08-17T00:31:05;19.50;99.90
3790;DHT22;1910;49.042;9.028;2023-08-17T00:33:30;19.50;99.90
3790;DHT22;1910;49.042;9.028;2023-08-17T00:35:56;19.50;99.90
3790;DHT22;1910;49.042;9.028;2023-08-17T00:38:21;19.50;99.90
3790;DHT22;1910;49.042;9.028;2023-08-17T00:40:47;19.40;99.90
3790;DHT22;1910;49.042;9.028;2023-08-17T00:43:13;19.50;99.90
3790;DHT22;1910;49.042;9.028;2023-08-17T00:45:39;19.70;99.90
3790;DHT22;1910;49.042;9.028;2023-08-17T00:48:07;19.80;99.90
3790;DHT22;1910;49.042;9.028;2023-08-17T00:50:34;19.70;99.90
3790;DHT22;1910;49.042;9.028;2023-08-17T00:53:00;19.60;99.90
3790;DHT22;1910;49.042;9.028;2023-08-17T00:55:26;19.50;99.90
3790;DHT22;1910;49.042;9.028;2023-08-17T00:57:53;19.40;99.90
3790;DHT22;1910;49.042;9.028;2023-08-17T01:00:19;19.40;99.90
3790;DHT22;1910;49.042;9.028;2023-08-17T01:02:46;19.30;99.90
3790;DHT22;1910;49.042;9.028;2023-08-17T01:05:12;19.40;99.90
3790;DHT22;1910;49.042;9.028;2023-08-17T01:07:38;19.40;99.90
3790;DHT22;1910;49.042;9.028;2023-08-17T01:10:06;19.40;99.90
3790;DHT22;1910;49.042;9.028;2023-08-17T01:12:42;19.50;99.90
3790;DHT22;1910;49.042;9.028;2023-08-17T01:15:21;19.40;99.90
3790;DHT22;1910;49.042;9.028;2023-08-17T01:18:00;19.40;99.90
3790;DHT22;1910;49.042;9.028;2023-08-17T01:20:30;19.40;99.90
3790;DHT22;1910;49.042;9.028;2023-08-17T01:23:03;19.40;99.90
3790;DHT22;1910;49.042;9.028;2023-08-17T01:25:29;19.40;99.90
3790;DHT22;1910;49.042;9.028;2023-08-17T01:27:55;19.40;99.90
3790;DHT22;1910;49.042;9.028;2023-08-17T01:30:22;19.40;99.90
3790;DHT22;1910;49.042;9.028;2023-08-17T01:32:58;19.50;99.90
3790;DHT22;1910;49.042;9.028;2023-08-17T01:35:32;19.50;99.90
3790;DHT22;1910;49.042;9.028;2023-08-17T01:38:01;19.50;99.90
3790;DHT22;1910;49.042;9.028;2023-08-17T01:40:31;19.50;99.90
3790;DHT22;1910;49.042;9.028;2023-08-17T01:42:58;19.50;99.90
3790;DHT22;1910;49.042;9.028;2023-08-17T01:45:25;19.50;99.90
3790;DHT22;1910;49.042;9.028;2023-08-17T01:47:50;19.50;99.90
3790;DHT22;1910;49.042;9.028;2023-08-17T01:50:16;19.50;99.90
3790;DHT22;1910;49.042;9.028;2023-08-17T01:52:42;19.50;99.90
3790;DHT22;1910;49.042;9.028;2023-08-17T01:55:08;19.60;99.90
3790;DHT22;1910;49.042;9.028;2023-08-17T01:57:34;19.60;99.90
3790;DHT22;1910;49.042;9.028;2023-08-17T02:00:01;19.80;99.90
3790;DHT22;1910;49.042;9.028;2023-08-17T02:02:26;19.90;99.90
3790;DHT22;1910;49.042;9.028;2023-08-17T02:04:52;19.90;99.90
3790;DHT22;1910;49.042;9.028;2023-08-17T02:07:17;19.90;99.90
3790;DHT22;1910;49.042;9.028;2023-08-17T02:09:43;19.90;99.90
3790;DHT22;1910;49.042;9.028;2023-08-17T02:12:08;20.00;99.90
3790;DHT22;1910;49.042;9.028;2023-08-17T02:14:34;20.10;99.90
3790;DHT22;1910;49.042;9.028;2023-08-17T02:16:59;20.00;99.90
3790;DHT22;1910;49.042;9.028;2023-08-17T02:19:25;19.90;99.90
3790;DHT22;1910;49.042;9.028;2023-08-17T02:21:51;19.90;99.90
3790;DHT22;1910;49.042;9.028;2023-08-17T02:24:16;19.90;99.90
3790;DHT22;1910;49.042;9.028;2023-08-17T02:26:42;20.00;99.90
3790;DHT22;1910;49.042;9.028;2023-08-17T02:29:07;20.10;99.90
3790;DHT22;1910;49.042;9.028;2023-08-17T02:31:33;20.00;99.90
3790;DHT22;1910;49.042;9.028;2023-08-17T02:33:58;20.00;99.90
3790;DHT22;1910;49.042;9.028;2023-08-17T02:36:27;20.30;99.90
3790;DHT22;1910;49.042;9.028;2023-08-17T02:38:52;20.20;99.90
3790;DHT22;1910;49.042;9.028;2023-08-17T02:41:18;20.20;99.90
3790;DHT22;1910;49.042;9.028;2023-08-17T02:43:44;20.30;99.90
3790;DHT22;1910;49.042;9.028;2023-08-17T02:46:09;20.30;99.90
3790;DHT22;1910;49.042;9.028;2023-08-17T02:48:36;20.20;99.90
3790;DHT22;1910;49.042;9.028;2023-08-17T02:51:01;20.20;99.90
3790;DHT22;1910;49.042;9.028;2023-08-17T02:53:27;20.20;99.90
3790;DHT22;1910;49.042;9.028;2023-08-17T02:55:52;20.30;99.90
3790;DHT22;1910;49.042;9.028;2023-08-17T02:58:18;20.30;99.90
3790;DHT22;1910;49.042;9.028;2023-08-17T03:00:44;20.40;99.90
3790;DHT22;1910;49.042;9.028;2023-08-17T03:03:09;20.30;99.90
3790;DHT22;1910;49.042;9.028;2023-08-17T03:05:35;20.50;99.90
3790;DHT22;1910;49.042;9.028;2023-08-17T03:08:01;20.50;99.90
3790;DHT22;1910;49.042;9.028;2023-08-17T03:10:27;20.40;99.90
3790;DHT22;1910;49.042;9.028;2023-08-17T03:12:53;20.40;99.90
3790;DHT22;1910;49.042;9.028;2023-08-17T03:15:18;20.30;99.90
3790;DHT22;1910;49.042;9.028;2023-08-17T03:17:44;20.30;99.90
3790;DHT22;1910;49.042;9.028;2023-08-17T03:20:09;20.40;99.90
3790;DHT22;1910;49.042;9.028;2023-08-17T03:22:35;20.40;99.90
3790;DHT22;1910;49.042;9.028;2023-08-17T03:25:01;20.30;99.90
3790;DHT22;1910;49.042;9.028;2023-08-17T03:27:26;20.30;99.90
3790;DHT22;1910;49.042;9.028;2023-08-17T03:29:54;20.30;99.90
3790;DHT22;1910;49.042;9.028;2023-08-17T03:32:19;20.40;99.90
3790;DHT22;1910;49.042;9.028;2023-08-17T03:34:44;20.40;99.90
3790;DHT22;1910;49.042;9.028;2023-08-17T03:37:10;20.40;99.90
3790;DHT22;1910;49.042;9.028;2023-08-17T03:39:36;20.40;99.90
3790;DHT22;1910;49.042;9.028;2023-08-17T03:42:01;20.40;99.90
3790;DHT22;1910;49.042;9.028;2023-08-17T03:44:27;20.40;99.90
3790;DHT22;1910;49.042;9.028;2023-08-17T03:46:52;20.40;99.90
3790;DHT22;1910;49.042;9.028;2023-08-17T03:49:18;20.50;99.90
3790;DHT22;1910;49.042;9.028;2023-08-17T03:51:43;20.40;99.90
3790;DHT22;1910;49.042;9.028;2023-08-17T03:54:09;20.40;99.90
3790;DHT22;1910;49.042;9.028;2023-08-17T03:56:34;20.30;99.90
3790;DHT22;1910;49.042;9.028;2023-08-17T03:59:00;20.30;99.90
3790;DHT22;1910;49.042;9.028;2023-08-17T04:01:25;20.20;99.90
3790;DHT22;1910;49.042;9.028;2023-08-17T04:03:51;20.20;99.90
3790;DHT22;1910;49.042;9.028;2023-08-17T04:06:16;20.20;99.90
3790;DHT22;1910;49.042;9.028;2023-08-17T04:08:42;20.30;99.90
3790;DHT22;1910;49.042;9.028;2023-08-17T04:11:07;20.40;99.90
3790;DHT22;1910;49.042;9.028;2023-08-17T04:13:33;20.30;99.90
3790;DHT22;1910;49.042;9.028;2023-08-17T04:15:58;20.30;99.90
3790;DHT22;1910;49.042;9.028;2023-08-17T04:18:24;20.30;99.90
3790;DHT22;1910;49.042;9.028;2023-08-17T04:20:50;20.30;99.90
3790;DHT22;1910;49.042;9.028;2023-08-17T04:23:15;20.30;99.90
3790;DHT22;1910;49.042;9.028;2023-08-17T04:25:43;20.40;99.90
3790;DHT22;1910;49.042;9.028;2023-08-17T04:28:08;20.40;99.90
3790;DHT22;1910;49.042;9.028;2023-08-17T04:30:34;20.30;99.90
3790;DHT22;1910;49.042;9.028;2023-08-17T04:33:00;20.30;99.90
3790;DHT22;1910;49.042;9.028;2023-08-17T04:35:25;20.30;99.90
3790;DHT22;1910;49.042;9.028;2023-08-17T04:37:51;20.30;99.90
3790;DHT22;1910;49.042;9.028;2023-08-17T04:40:16;20.40;99.90
3790;DHT22;1910;49.042;9.028;2023-08-17T04:42:42;20.40;99.90
3790;DHT22;1910;49.042;9.028;2023-08-17T04:45:08;20.30;99.90
3790;DHT22;1910;49.042;9.028;2023-08-17T04:47:34;20.40;99.90
3790;DHT22;1910;49.042;9.028;2023-08-17T04:49:59;20.40;99.90
3790;DHT22;1910;49.042;9.028;2023-08-17T04:52:25;20.50;99.90
3790;DHT22;1910;49.042;9.028;2023-08-17T04:54:50;20.40;99.90
3790;DHT22;1910;49.042;9.028;2023-08-17T04:57:16;20.50;99.90
3790;DHT22;1910;49.042;9.028;2023-08-17T04:59:43;20.60;99.90
3790;DHT22;1910;49.042;9.028;2023-08-17T05:02:08;20.60;99.90
3790;DHT22;1910;49.042;9.028;2023-08-17T05:04:35;20.50;99.90
3790;DHT22;1910;49.042;9.028;2023-08-17T05:07:00;20.60;99.90
3790;DHT22;1910;49.042;9.028;2023-08-17T05:09:26;20.60;99.90
3790;DHT22;1910;49.042;9.028;2023-08-17T05:11:52;20.80;99.90
3790;DHT22;1910;49.042;9.028;2023-08-17T05:14:17;20.70;99.90
3790;DHT22;1910;49.042;9.028;2023-08-17T05:16:43;20.70;99.90
3790;DHT22;1910;49.042;9.028;2023-08-17T05:19:09;20.70;99.90
3790;DHT22;1910;49.042;9.028;2023-08-17T05:21:35;20.80;99.90
3790;DHT22;1910;49.042;9.028;2023-08-17T05:24:00;20.80;99.90
3790;DHT22;1910;49.042;9.028;2023-08-17T05:26:26;20.80;99.90
3790;DHT22;1910;49.042;9.028;2023-08-17T05:28:51;20.80;99.90
3790;DHT22;1910;49.042;9.028;2023-08-17T05:31:16;20.90;99.90
3790;DHT22;1910;49.042;9.028;2023-08-17T05:33:42;21.00;99.90
3790;DHT22;1910;49.042;9.028;2023-08-17T05:36:08;21.10;99.90
3790;DHT22;1910;49.042;9.028;2023-08-17T05:38:33;21.20;99.90
3790;DHT22;1910;49.042;9.028;2023-08-17T05:40:59;21.20;99.90
3790;DHT22;1910;49.042;9.028;2023-08-17T05:43:25;21.20;99.90
3790;DHT22;1910;49.042;9.028;2023-08-17T05:45:51;21.10;99.90
3790;DHT22;1910;49.042;9.028;2023-08-17T05:48:21;21.10;99.90
3790;DHT22;1910;49.042;9.028;2023-08-17T05:50:47;21.30;99.90
3790;DHT22;1910;49.042;9.028;2023-08-17T05:53:13;21.20;99.90
3790;DHT22;1910;49.042;9.028;2023-08-17T05:55:38;21.10;99.90
3790;DHT22;1910;49.042;9.028;2023-08-17T05:58:04;21.00;99.90
3790;DHT22;1910;49.042;9.028;2023-08-17T06:00:30;21.00;99.90
3790;DHT22;1910;49.042;9.028;2023-08-17T06:02:56;21.70;99.90
3790;DHT22;1910;49.042;9.028;2023-08-17T06:05:27;21.40;99.90
3790;DHT22;1910;49.042;9.028;2023-08-17T06:07:56;21.50;99.90
3790;DHT22;1910;49.042;9.028;2023-08-17T06:10:23;21.60;99.90
3790;DHT22;1910;49.042;9.028;2023-08-17T06:12:55;21.60;99.90
3790;DHT22;1910;49.042;9.028;2023-08-17T06:15:22;21.40;99.90
3790;DHT22;1910;49.042;9.028;2023-08-17T06:17:48;21.30;99.90
3790;DHT22;1910;49.042;9.028;2023-08-17T06:20:15;21.30;99.90
3790;DHT22;1910;49.042;9.028;2023-08-17T06:22:41;21.50;99.90
3790;DHT22;1910;49.042;9.028;2023-08-17T06:25:08;21.60;99.90
3790;DHT22;1910;49.042;9.028;2023-08-17T06:27:34;21.70;99.90
3790;DHT22;1910;49.042;9.028;2023-08-17T06:30:00;21.80;99.90
3790;DHT22;1910;49.042;9.028;2023-08-17T06:32:26;21.80;99.90
3790;DHT22;1910;49.042;9.028;2023-08-17T06:34:51;21.80;99.90
3790;DHT22;1910;49.042;9.028;2023-08-17T06:37:19;21.80;99.90
3790;DHT22;1910;49.042;9.028;2023-08-17T06:39:45;21.80;99.90
3790;DHT22;1910;49.042;9.028;2023-08-17T06:42:10;21.80;99.90
3790;DHT22;1910;49.042;9.028;2023-08-17T06:44:36;21.80;99.90
3790;DHT22;1910;49.042;9.028;2023-08-17T06:47:01;22.00;99.90
3790;DHT22;1910;49.042;9.028;2023-08-17T06:49:27;22.00;99.90
3790;DHT22;1910;49.042;9.028;2023-08-17T06:51:53;22.10;99.90
3790;DHT22;1910;49.042;9.028;2023-08-17T06:54:18;22.30;99.90
3790;DHT22;1910;49.042;9.028;2023-08-17T06:56:44;22.20;99.90
3790;DHT22;1910;49.042;9.028;2023-08-17T06:59:10;22.50;99.90
3790;DHT22;1910;49.042;9.028;2023-08-17T07:01:35;22.80;99.90
3790;DHT22;1910;49.042;9.028;2023-08-17T07:04:01;22.90;99.90
3790;DHT22;1910;49.042;9.028;2023-08-17T07:06:27;23.20;99.90
3790;DHT22;1910;49.042;9.028;2023-08-17T07:08:54;23.30;99.90
3790;DHT22;1910;49.042;9.028;2023-08-17T07:11:19;23.40;99.90
3790;DHT22;1910;49.042;9.028;2023-08-17T07:13:45;23.60;99.90
3790;DHT22;1910;49.042;9.028;2023-08-17T07:16:10;23.90;99.90
3790;DHT22;1910;49.042;9.028;2023-08-17T07:18:36;24.00;99.90
3790;DHT22;1910;49.042;9.028;2023-08-17T07:21:02;24.20;99.90
3790;DHT22;1910;49.042;9.028;2023-08-17T07:23:27;24.20;99.90
3790;DHT22;1910;49.042;9.028;2023-08-17T07:25:53;23.90;99.90
3790;DHT22;1910;49.042;9.028;2023-08-17T07:28:18;23.60;99.90
3790;DHT22;1910;49.042;9.028;2023-08-17T07:30:44;23.60;99.90
3790;DHT22;1910;49.042;9.028;2023-08-17T07:33:09;23.60;99.90
3790;DHT22;1910;49.042;9.028;2023-08-17T07:35:35;23.60;99.90
3790;DHT22;1910;49.042;9.028;2023-08-17T07:38:00;23.50;99.90
3790;DHT22;1910;49.042;9.028;2023-08-17T07:40:26;23.60;99.90
3790;DHT22;1910;49.042;9.028;2023-08-17T07:42:52;23.40;99.90
3790;DHT22;1910;49.042;9.028;2023-08-17T07:45:18;23.60;99.90
3790;DHT22;1910;49.042;9.028;2023-08-17T07:47:43;23.80;99.90
3790;DHT22;1910;49.042;9.028;2023-08-17T07:50:09;24.30;99.90
3790;DHT22;1910;49.042;9.028;2023-08-17T07:52:35;24.90;99.90
3790;DHT22;1910;49.042;9.028;2023-08-17T07:55:00;25.50;99.90
3790;DHT22;1910;49.042;9.028;2023-08-17T07:57:26;26.10;99.90
3790;DHT22;1910;49.042;9.028;2023-08-17T07:59:51;26.80;99.90
3790;DHT22;1910;49.042;9.028;2023-08-17T08:02:19;27.60;99.90
3790;DHT22;1910;49.042;9.028;2023-08-17T08:04:44;27.90;99.90
3790;DHT22;1910;49.042;9.028;2023-08-17T08:07:10;28.00;99.90
3790;DHT22;1910;49.042;9.028;2023-08-17T08:09:36;28.00;99.90
3790;DHT22;1910;49.042;9.028;2023-08-17T08:12:02;28.30;99.90
3790;DHT22;1910;49.042;9.028;2023-08-17T08:14:27;28.40;99.90
3790;DHT22;1910;49.042;9.028;2023-08-17T08:16:53;27.90;99.90
3790;DHT22;1910;49.042;9.028;2023-08-17T08:19:18;28.20;99.90
3790;DHT22;1910;49.042;9.028;2023-08-17T08:21:44;28.60;99.90
3790;DHT22;1910;49.042;9.028;2023-08-17T08:24:10;29.00;99.90
3790;DHT22;1910;49.042;9.028;2023-08-17T08:26:35;28.10;99.90
3790;DHT22;1910;49.042;9.028;2023-08-17T08:29:01;27.70;99.90
3790;DHT22;1910;49.042;9.028;2023-08-17T08:31:26;27.70;99.90
3790;DHT22;1910;49.042;9.028;2023-08-17T08:33:52;28.50;99.90
3790;DHT22;1910;49.042;9.028;2023-08-17T08:36:18;29.50;99.90
3790;DHT22;1910;49.042;9.028;2023-08-17T08:38:43;30.90;99.90
3790;DHT22;1910;49.042;9.028;2023-08-17T08:41:11;32.90;99.90
3790;DHT22;1910;49.042;9.028;2023-08-17T08:43:36;34.60;99.90
3790;DHT22;1910;49.042;9.028;2023-08-17T08:46:02;36.20;99.90
3790;DHT22;1910;49.042;9.028;2023-08-17T08:48:29;37.00;99.90
3790;DHT22;1910;49.042;9.028;2023-08-17T08:50:55;36.80;99.90
3790;DHT22;1910;49.042;9.028;2023-08-17T08:53:29;35.80;99.90
3790;DHT22;1910;49.042;9.028;2023-08-17T08:55:58;35.60;99.90
3790;DHT22;1910;49.042;9.028;2023-08-17T08:58:25;35.40;99.90
3790;DHT22;1910;49.042;9.028;2023-08-17T09:00:52;35.60;99.90
3790;DHT22;1910;49.042;9.028;2023-08-17T09:03:19;35.50;99.90
3790;DHT22;1910;49.042;9.028;2023-08-17T09:05:49;35.80;99.90
3790;DHT22;1910;49.042;9.028;2023-08-17T09:08:21;36.70;99.00
3790;DHT22;1910;49.042;9.028;2023-08-17T09:10:47;36.40;98.00
3790;DHT22;1910;49.042;9.028;2023-08-17T09:13:12;37.60;97.50
3790;DHT22;1910;49.042;9.028;2023-08-17T09:15:38;38.80;95.50
3790;DHT22;1910;49.042;9.028;2023-08-17T09:18:05;39.00;92.60
3790;DHT22;1910;49.042;9.028;2023-08-17T09:20:41;37.80;93.90
3790;DHT22;1910;49.042;9.028;2023-08-17T09:23:21;38.10;94.10
3790;DHT22;1910;49.042;9.028;2023-08-17T09:25:47;37.60;93.00
3790;DHT22;1910;49.042;9.028;2023-08-17T09:28:15;35.40;94.70
3790;DHT22;1910;49.042;9.028;2023-08-17T09:30:58;36.60;95.70
3790;DHT22;1910;49.042;9.028;2023-08-17T09:33:27;37.10;93.90
3790;DHT22;1910;49.042;9.028;2023-08-17T09:35:57;36.60;94.60
3790;DHT22;1910;49.042;9.028;2023-08-17T09:38:24;36.60;95.30
3790;DHT22;1910;49.042;9.028;2023-08-17T09:40:50;37.60;93.10
3790;DHT22;1910;49.042;9.028;2023-08-17T09:43:17;37.30;93.30
3790;DHT22;1910;49.042;9.028;2023-08-17T09:45:44;35.60;95.40
3790;DHT22;1910;49.042;9.028;2023-08-17T09:48:17;34.10;96.10
3790;DHT22;1910;49.042;9.028;2023-08-17T09:50:44;32.70;99.90
3790;DHT22;1910;49.042;9.028;2023-08-17T09:53:14;30.90;99.90
3790;DHT22;1910;49.042;9.028;2023-08-17T09:55:42;31.30;99.90
3790;DHT22;1910;49.042;9.028;2023-08-17T09:58:08;32.30;99.90
3790;DHT22;1910;49.042;9.028;2023-08-17T10:00:34;33.70;99.90
3790;DHT22;1910;49.042;9.028;2023-08-17T10:03:04;35.20;99.90
3790;DHT22;1910;49.042;9.028;2023-08-17T10:05:33;33.80;99.90
3790;DHT22;1910;49.042;9.028;2023-08-17T10:08:02;32.40;99.90
3790;DHT22;1910;49.042;9.028;2023-08-17T10:10:29;32.90;99.90
3790;DHT22;1910;49.042;9.028;2023-08-17T10:13:10;32.70;99.90
3790;DHT22;1910;49.042;9.028;2023-08-17T10:15:57;34.10;99.90
3790;DHT22;1910;49.042;9.028;2023-08-17T10:21:02;34.50;99.90
3790;DHT22;1910;49.042;9.028;2023-08-17T10:23:31;34.50;99.90
3790;DHT22;1910;49.042;9.028;2023-08-17T10:25:57;34.00;99.90
3790;DHT22;1910;49.042;9.028;2023-08-17T10:28:24;31.70;99.90
3790;DHT22;1910;49.042;9.028;2023-08-17T10:30:51;30.50;99.90
3790;DHT22;1910;49.042;9.028;2023-08-17T10:33:17;29.50;99.90
3790;DHT22;1910;49.042;9.028;2023-08-17T10:35:43;29.20;99.90
3790;DHT22;1910;49.042;9.028;2023-08-17T10:38:10;29.30;99.90
3790;DHT22;1910;49.042;9.028;2023-08-17T10:40:37;28.90;99.90
3790;DHT22;1910;49.042;9.028;2023-08-17T10:43:03;28.50;99.90
3790;DHT22;1910;49.042;9.028;2023-08-17T10:45:31;28.50;99.90
3790;DHT22;1910;49.042;9.028;2023-08-17T10:48:26;28.30;99.90
3790;DHT22;1910;49.042;9.028;2023-08-17T10:51:01;28.90;99.90
3790;DHT22;1910;49.042;9.028;2023-08-17T10:53:34;29.50;99.90
3790;DHT22;1910;49.042;9.028;2023-08-17T10:55:59;29.80;99.90
3790;DHT22;1910;49.042;9.028;2023-08-17T10:58:25;29.30;99.90
3790;DHT22;1910;49.042;9.028;2023-08-17T11:00:55;28.90;99.90
3790;DHT22;1910;49.042;9.028;2023-08-17T11:03:22;29.00;99.90
3790;DHT22;1910;49.042;9.028;2023-08-17T11:05:53;28.90;99.90
3790;DHT22;1910;49.042;9.028;2023-08-17T11:08:23;28.50;99.90
3790;DHT22;1910;49.042;9.028;2023-08-17T11:10:58;28.70;99.90
3790;DHT22;1910;49.042;9.028;2023-08-17T11:13:27;29.20;99.90
3790;DHT22;1910;49.042;9.028;2023-08-17T11:15:53;29.50;99.90
3790;DHT22;1910;49.042;9.028;2023-08-17T11:18:19;29.30;99.90
3790;DHT22;1910;49.042;9.028;2023-08-17T11:20:44;29.00;99.90
3790;DHT22;1910;49.042;9.028;2023-08-17T11:23:10;29.00;99.90
3790;DHT22;1910;49.042;9.028;2023-08-17T11:25:37;29.10;99.90
3790;DHT22;1910;49.042;9.028;2023-08-17T11:28:03;29.10;99.90
3790;DHT22;1910;49.042;9.028;2023-08-17T11:30:31;28.90;99.90
3790;DHT22;1910;49.042;9.028;2023-08-17T11:32:59;29.00;99.90
3790;DHT22;1910;49.042;9.028;2023-08-17T11:35:25;29.10;99.90
3790;DHT22;1910;49.042;9.028;2023-08-17T11:37:50;29.30;99.90
3790;DHT22;1910;49.042;9.028;2023-08-17T11:40:16;29.50;99.90
3790;DHT22;1910;49.042;9.028;2023-08-17T11:42:42;29.60;99.90
3790;DHT22;1910;49.042;9.028;2023-08-17T11:45:08;29.70;99.90
3790;DHT22;1910;49.042;9.028;2023-08-17T11:47:41;29.40;99.90
3790;DHT22;1910;49.042;9.028;2023-08-17T11:50:09;29.60;99.90
3790;DHT22;1910;49.042;9.028;2023-08-17T11:52:35;29.70;99.90
3790;DHT22;1910;49.042;9.028;2023-08-17T11:55:04;30.20;99.90
3790;DHT22;1910;49.042;9.028;2023-08-17T11:57:31;30.50;99.90
3790;DHT22;1910;49.042;9.028;2023-08-17T11:59:58;30.30;99.90
3790;DHT22;1910;49.042;9.028;2023-08-17T12:02:25;29.70;99.90
3790;DHT22;1910;49.042;9.028;2023-08-17T12:04:52;29.30;99.90
3790;DHT22;1910;49.042;9.028;2023-08-17T12:07:18;29.60;99.90
3790;DHT22;1910;49.042;9.028;2023-08-17T12:09:45;29.40;99.90
3790;DHT22;1910;49.042;9.028;2023-08-17T12:12:11;29.20;99.90
3790;DHT22;1910;49.042;9.028;2023-08-17T12:14:41;28.70;99.90
3790;DHT22;1910;49.042;9.028;2023-08-17T12:17:07;28.00;99.90
3790;DHT22;1910;49.042;9.028;2023-08-17T12:19:32;27.90;99.90
3790;DHT22;1910;49.042;9.028;2023-08-17T12:21:58;27.80;99.90
3790;DHT22;1910;49.042;9.028;2023-08-17T12:24:24;27.40;99.90
3790;DHT22;1910;49.042;9.028;2023-08-17T12:26:50;27.10;99.90
3790;DHT22;1910;49.042;9.028;2023-08-17T12:29:15;26.90;99.90
3790;DHT22;1910;49.042;9.028;2023-08-17T12:31:41;26.60;99.90
3790;DHT22;1910;49.042;9.028;2023-08-17T12:34:06;26.60;99.90
3790;DHT22;1910;49.042;9.028;2023-08-17T12:36:34;26.00;99.90
3790;DHT22;1910;49.042;9.028;2023-08-17T12:39:01;26.00;99.90
3790;DHT22;1910;49.042;9.028;2023-08-17T12:41:26;25.70;99.90
3790;DHT22;1910;49.042;9.028;2023-08-17T12:43:52;25.50;99.90
3790;DHT22;1910;49.042;9.028;2023-08-17T12:46:19;25.10;99.90
3790;DHT22;1910;49.042;9.028;2023-08-17T12:48:45;25.00;99.90
3790;DHT22;1910;49.042;9.028;2023-08-17T12:51:10;24.90;99.90
3790;DHT22;1910;49.042;9.028;2023-08-17T12:53:36;24.80;99.90
3790;DHT22;1910;49.042;9.028;2023-08-17T12:56:01;24.90;99.90
3790;DHT22;1910;49.042;9.028;2023-08-17T13:00:53;24.50;99.90
3790;DHT22;1910;49.042;9.028;2023-08-17T13:03:20;24.40;99.90
3790;DHT22;1910;49.042;9.028;2023-08-17T13:05:46;24.30;99.90
3790;DHT22;1910;49.042;9.028;2023-08-17T13:08:12;24.10;99.90
3790;DHT22;1910;49.042;9.028;2023-08-17T13:10:37;24.20;99.90
3790;DHT22;1910;49.042;9.028;2023-08-17T13:13:03;24.30;99.90
3790;DHT22;1910;49.042;9.028;2023-08-17T13:15:29;24.20;99.90
3790;DHT22;1910;49.042;9.028;2023-08-17T13:17:55;24.10;99.90
3790;DHT22;1910;49.042;9.028;2023-08-17T13:20:21;24.00;99.90
3790;DHT22;1910;49.042;9.028;2023-08-17T13:22:46;23.80;99.90
3790;DHT22;1910;49.042;9.028;2023-08-17T13:25:12;23.70;99.90
3790;DHT22;1910;49.042;9.028;2023-08-17T13:27:38;23.70;99.90
3790;DHT22;1910;49.042;9.028;2023-08-17T13:30:03;23.60;99.90
3790;DHT22;1910;49.042;9.028;2023-08-17T13:32:29;23.60;99.90
3790;DHT22;1910;49.042;9.028;2023-08-17T13:34:55;23.60;99.90
3790;DHT22;1910;49.042;9.028;2023-08-17T13:37:21;23.70;99.90
3790;DHT22;1910;49.042;9.028;2023-08-17T13:39:46;23.70;99.90
3790;DHT22;1910;49.042;9.028;2023-08-17T13:42:13;23.70;99.90
3790;DHT22;1910;49.042;9.028;2023-08-17T13:44:39;23.70;99.90
3790;DHT22;1910;49.042;9.028;2023-08-17T13:47:05;23.80;99.90
3790;DHT22;1910;49.042;9.028;2023-08-17T13:49:30;23.90;99.90
3790;DHT22;1910;49.042;9.028;2023-08-17T13:51:56;24.00;99.90
3790;DHT22;1910;49.042;9.028;2023-08-17T13:54:22;24.20;99.90
3790;DHT22;1910;49.042;9.028;2023-08-17T13:56:48;24.30;99.90
3790;DHT22;1910;49.042;9.028;2023-08-17T14:01:39;24.40;99.90
3790;DHT22;1910;49.042;9.028;2023-08-17T14:04:06;24.40;99.90
3790;DHT22;1910;49.042;9.028;2023-08-17T14:06:37;24.50;99.90
3790;DHT22;1910;49.042;9.028;2023-08-17T14:09:03;24.70;99.90
3790;DHT22;1910;49.042;9.028;2023-08-17T14:11:29;24.80;99.90
3790;DHT22;1910;49.042;9.028;2023-08-17T14:13:54;25.00;99.90
3790;DHT22;1910;49.042;9.028;2023-08-17T14:16:20;25.00;99.90
3790;DHT22;1910;49.042;9.028;2023-08-17T14:18:45;25.30;99.90
3790;DHT22;1910;49.042;9.028;2023-08-17T14:21:11;25.40;99.90
3790;DHT22;1910;49.042;9.028;2023-08-17T14:23:38;25.60;99.90
3790;DHT22;1910;49.042;9.028;2023-08-17T14:26:04;25.80;99.90
3790;DHT22;1910;49.042;9.028;2023-08-17T14:28:30;25.90;99.90
3790;DHT22;1910;49.042;9.028;2023-08-17T14:30:55;25.80;99.90
3790;DHT22;1910;49.042;9.028;2023-08-17T14:33:21;25.90;99.90
3790;DHT22;1910;49.042;9.028;2023-08-17T14:35:46;26.00;99.90
3790;DHT22;1910;49.042;9.028;2023-08-17T14:38:12;26.00;99.90
3790;DHT22;1910;49.042;9.028;2023-08-17T14:40:42;26.40;99.90
3790;DHT22;1910;49.042;9.028;2023-08-17T14:43:09;26.70;99.90
3790;DHT22;1910;49.042;9.028;2023-08-17T14:45:39;27.10;99.90
3790;DHT22;1910;49.042;9.028;2023-08-17T14:48:05;27.40;99.90
3790;DHT22;1910;49.042;9.028;2023-08-17T14:50:31;27.40;99.90
3790;DHT22;1910;49.042;9.028;2023-08-17T14:52:57;27.60;99.90
3790;DHT22;1910;49.042;9.028;2023-08-17T14:55:22;27.80;99.90
3790;DHT22;1910;49.042;9.028;2023-08-17T14:57:48;28.10;99.90
3790;DHT22;1910;49.042;9.028;2023-08-17T15:00:14;27.90;99.90
3790;DHT22;1910;49.042;9.028;2023-08-17T15:02:39;27.60;99.90
3790;DHT22;1910;49.042;9.028;2023-08-17T15:05:05;27.60;99.90
3790;DHT22;1910;49.042;9.028;2023-08-17T15:07:32;27.80;99.90
3790;DHT22;1910;49.042;9.028;2023-08-17T15:09:57;27.80;99.90
3790;DHT22;1910;49.042;9.028;2023-08-17T15:12:23;28.20;99.90
3790;DHT22;1910;49.042;9.028;2023-08-17T15:14:49;28.40;99.90
3790;DHT22;1910;49.042;9.028;2023-08-17T15:17:15;28.40;99.90
3790;DHT22;1910;49.042;9.028;2023-08-17T15:19:40;28.60;99.90
3790;DHT22;1910;49.042;9.028;2023-08-17T15:22:06;28.70;99.90
3790;DHT22;1910;49.042;9.028;2023-08-17T15:24:31;29.10;99.90
3790;DHT22;1910;49.042;9.028;2023-08-17T15:26:57;29.60;99.90
3790;DHT22;1910;49.042;9.028;2023-08-17T15:29:23;30.20;99.90
3790;DHT22;1910;49.042;9.028;2023-08-17T15:31:50;30.20;99.90
3790;DHT22;1910;49.042;9.028;2023-08-17T15:34:16;30.50;99.90
3790;DHT22;1910;49.042;9.028;2023-08-17T15:36:41;30.50;99.90
3790;DHT22;1910;49.042;9.028;2023-08-17T15:39:07;30.50;99.90
3790;DHT22;1910;49.042;9.028;2023-08-17T15:41:32;30.30;99.90
3790;DHT22;1910;49.042;9.028;2023-08-17T15:43:58;30.00;99.90
3790;DHT22;1910;49.042;9.028;2023-08-17T15:46:23;29.30;99.90
3790;DHT22;1910;49.042;9.028;2023-08-17T15:48:49;29.20;99.90
3790;DHT22;1910;49.042;9.028;2023-08-17T15:51:14;29.30;99.90
3790;DHT22;1910;49.042;9.028;2023-08-17T15:53:40;29.50;99.90
3790;DHT22;1910;49.042;9.028;2023-08-17T15:56:09;29.60;99.90
3790;DHT22;1910;49.042;9.028;2023-08-17T15:58:34;29.00;99.90
3790;DHT22;1910;49.042;9.028;2023-08-17T16:01:00;28.30;99.90
3790;DHT22;1910;49.042;9.028;2023-08-17T16:03:26;27.60;99.90
3790;DHT22;1910;49.042;9.028;2023-08-17T16:05:51;27.70;99.90